Pinheiro Machado, Brazil
Current Conditions -  °F | °C
As of 2:00 PM on Saturday 20 Dec 2014 (Local Time) from SBPK Reporting Station
Clear Clear  
Wind Chill: 88°   Ceiling: Unl
Heat Index: 94°   Visibility: 6mi
Dew Point: 72°   Wind: 12mph
Humidity: 58%   Direction: 60°ENE
Pressure: 29.62"   Gusts: NA
Location:  31.58°S, 53.38°W
Report Text: SBPK 201600Z 06010KT CAVOK 31/22 Q1003
Loading
Personal Weather Stations






























Interactive Weather Map New forecast layout! Learn more

10-Day Weather Forecast

Advertisements
Track Severe Weather on mobile